Latest Coastal Weather Observations for Hopetoun North

IDW60701

Issued at 2:42 am WST Wednesday 4 March 2015 (issued every 10 minutes, with the page automatically refreshed every 10 minutes)

About coastal observations | Map of coastal stations | Coastal observations for WA | Marine services | Other Formats
Station Details ID: 009961 Name: HOPETOUN NORTH Lat: -33.93 Lon: 120.13 Height: 26.0 m
Data from the previous 72 hours. | See also: Recent months at Hopetoun North
Date/Time
WST
Temp

°C
Wind Pressure Rain
since 9am
mm
Weather Cloud Vis
km
Sea
Height
m
Swell
Dir
 
Speed
knots
Gust
knots
hPa Trend Height
m
Period
s
Dir
04/02:30am 18.1 ESE 3 5 1022.8 - 0.0 - - - - - - -
04/02:00am 18.2 ESE 5 7 1022.9 - 0.0 - - - - - - -
04/01:30am 18.1 SE 5 8 1023.0 - 0.0 - - - - - - -
04/01:00am 18.2 SE 5 8 1023.5 - 0.0 - - - - - - -
04/12:30am 18.2 SE 6 8 1023.7 - 0.0 - - - - - - -
04/12:00am 18.3 ESE 7 10 1023.7 - 0.0 - - - - - - -
 
Date/Time
WST
Temp

°C
Wind Pressure Rain
since 9am
mm
Weather Cloud Vis
km
Sea
Height
m
Swell
Dir
 
Speed
knots
Gust
knots
hPa Trend Height
m
Period
s
Dir
03/11:30pm 18.2 SE 6 9 1023.8 - 0.0 - - - - - - -
03/11:00pm 18.2 SE 6 8 1023.8 - 0.0 - - - - - - -
03/10:30pm 18.2 SE 6 9 1023.8 - 0.0 - - - - - - -
03/10:00pm 18.2 SE 6 9 1024.0 - 0.0 - - - - - - -
03/09:30pm 18.2 SE 6 9 1024.0 - 0.0 - - - - - - -
03/09:00pm 18.2 SE 6 10 1024.1 - 0.0 - - - - - - -
03/08:30pm 18.0 SE 6 8 1024.0 - 0.0 - - - - - - -
03/08:00pm 18.2 SE 8 11 1023.7 - 0.0 - - - - - - -
03/07:30pm 18.4 SE 9 13 1023.3 - 0.0 - - - - - - -
03/07:00pm 18.4 SSE 9 15 1023.0 - 0.0 - - - - - - -
03/06:30pm 18.5 SSE 8 13 1022.8 - 0.0 - - - - - - -
03/06:00pm 18.8 SSE 10 14 1022.5 - 0.0 - - - - - - -
03/05:30pm 18.9 SSE 10 16 1022.6 - 0.0 - - - - - - -
03/05:00pm 19.1 SSE 12 17 1022.4 - 0.0 - - - - - - -
03/04:30pm 19.2 SSE 12 18 1022.4 - 0.0 - - - - - - -
03/04:00pm 19.9 SSE 11 16 1022.3 - 0.0 - - - - - - -
03/03:30pm 20.9 SSE 12 18 1022.1 - 0.0 - - - - - - -
03/03:00pm 21.4 SSE 13 17 1021.9 - 0.0 - - - - - - -
03/02:30pm 21.1 SSE 13 18 1021.9 - 0.0 - - - - - - -
03/02:00pm 21.9 SSE 13 17 1022.1 - 0.0 - - - - - - -
03/01:30pm 21.6 SSE 12 16 1022.2 - 0.0 - - - - - - -
03/01:00pm 21.6 SSE 11 15 1022.2 - 0.0 - - - - - - -
03/12:30pm 21.9 SSE 10 13 1022.3 - 0.0 - - - - - - -
03/12:00pm 21.9 S 9 13 1022.4 - 0.0 - - - - - - -
03/11:30am 21.1 S 9 12 1022.5 - 0.0 - - - - - - -
03/11:00am 20.5 S 9 12 1022.7 - 0.0 - - - - - - -
03/10:30am 20.6 S 8 10 1022.9 - 0.0 - - - - - - -
03/10:00am 19.2 S 8 10 1022.9 - 0.0 - - - - - - -
03/09:30am 19.4 S 6 9 1023.0 - 0.0 - - - - - - -
03/09:00am 19.5 S 8 10 1022.9 - 0.0 - - - - - - -
03/08:30am 19.2 S 7 9 1022.9 - 0.0 - - - - - - -
03/08:00am 18.4 CALM 0 2 1022.9 - 0.0 - - - - - - -
03/07:30am 17.2 CALM 0 0 1022.8 - 0.0 - - - - - - -
03/07:00am 16.6 CALM 0 0 1022.6 - 0.0 - - - - - - -
03/06:30am 16.4 CALM 0 0 1022.2 - 0.0 - - - - - - -
03/06:00am 16.0 NE 2 4 1021.7 - 0.0 - - - - - - -
03/05:30am 16.1 NE 3 5 1021.4 - 0.0 - - - - - - -
03/05:00am 16.7 NE 4 6 1021.1 - 0.0 - - - - - - -
03/04:30am 17.9 NE 6 9 1020.9 - 0.0 - - - - - - -
03/04:00am 18.6 ESE 5 8 1020.7 - 0.0 - - - - - - -
03/03:30am 18.6 ESE 5 8 1020.7 - 0.0 - - - - - - -
03/03:00am 18.6 ESE 7 9 1020.7 - 0.0 - - - - - - -
03/02:30am 18.6 ESE 7 11 1020.7 - 0.0 - - - - - - -
03/02:00am 18.5 E 7 10 1020.7 - 0.0 - - - - - - -
03/01:30am 18.5 ESE 8 13 1020.7 - 0.0 - - - - - - -
03/01:00am 18.4 ESE 8 13 1020.8 - 0.0 - - - - - - -
03/12:30am 17.9 ESE 8 11 1020.7 - 0.0 - - - - - - -
03/12:00am 17.8 SE 9 13 1020.8 - 0.0 - - - - - - -
 
Date/Time
WST
Temp

°C
Wind Pressure Rain
since 9am
mm
Weather Cloud Vis
km
Sea
Height
m
Swell
Dir
 
Speed
knots
Gust
knots
hPa Trend Height
m
Period
s
Dir
02/11:30pm 18.4 SE 10 16 1021.0 - 0.0 - - - - - - -
02/11:00pm 18.2 SE 10 15 1021.0 - 0.0 - - - - - - -
02/10:30pm 18.1 SE 11 16 1021.1 - 0.0 - - - - - - -
02/10:00pm 18.2 SE 12 18 1021.2 - 0.0 - - - - - - -
02/09:30pm 18.1 SSE 12 18 1021.1 - 0.0 - - - - - - -
02/09:00pm 18.5 SE 12 17 1021.0 - 0.0 - - - - - - -
02/08:30pm 18.6 SE 11 15 1020.6 - 0.0 - - - - - - -
02/08:00pm 18.6 SSE 11 17 1020.1 - 0.0 - - - - - - -
02/07:30pm 18.4 SE 10 16 1019.6 - 0.0 - - - - - - -
02/07:00pm 18.4 SSE 11 15 1019.0 - 0.0 - - - - - - -
02/06:30pm 18.3 SSE 10 16 1018.7 - 0.0 - - - - - - -
02/06:00pm 18.4 SSE 11 16 1018.4 - 0.0 - - - - - - -
02/05:30pm 18.6 SSE 11 16 1018.2 - 0.0 - - - - - - -
02/05:00pm 18.6 SE 11 15 1018.0 - 0.0 - - - - - - -
02/04:30pm 18.7 SE 9 14 1018.1 - 0.0 - - - - - - -
02/04:00pm 18.8 SE 11 17 1017.6 - 0.0 - - - - - - -
02/03:30pm 19.3 SSE 10 16 1017.7 - 0.0 - - - - - - -
02/03:00pm 19.0 SSE 12 16 1017.6 - 0.0 - - - - - - -
02/02:30pm 18.9 SE 11 16 1017.6 - 0.0 - - - - - - -
02/02:00pm 18.8 SE 10 15 1017.8 - 0.0 - - - - - - -
02/01:30pm 18.5 SE 11 17 1018.0 - 0.0 - - - - - - -
02/01:00pm 18.8 SE 11 17 1017.8 - 0.0 - - - - - - -
02/12:30pm 17.7 SE 11 17 1017.7 - 0.0 - - - - - - -
02/12:00pm 17.1 SE 14 20 1017.8 - 0.0 - - - - - - -
02/11:30am 17.8 SE 15 25 1017.8 - 0.0 - - - - - - -
02/11:00am 17.9 SE 15 20 1017.8 - 0.0 - - - - - - -
02/10:30am 17.6 SSE 16 22 1017.8 - 0.0 - - - - - - -
02/10:00am 17.4 SE 16 24 1017.7 - 0.0 - - - - - - -
02/09:30am 17.6 SSE 15 23 1017.4 - 0.0 - - - - - - -
02/09:00am 17.9 SSE 13 19 1017.2 - 8.2 - - - - - - -
02/08:30am 17.5 SSE 17 23 1016.8 - 8.2 - - - - - - -
02/08:00am 17.6 SSE 16 22 1016.6 - 8.2 - - - - - - -
02/07:30am 17.6 SSE 15 27 1016.2 - 8.2 - - - - - - -
02/07:00am 17.6 SSE 16 22 1016.0 - 8.2 - - - - - - -
02/06:30am 17.4 SSE 15 24 1015.6 - 8.2 - - - - - - -
02/06:00am 17.3 SSE 16 24 1015.2 - 8.2 Recent precip. - - - - - -
02/05:30am 17.6 SSE 14 20 1014.9 - 7.8 - - - - - - -
02/05:00am 17.5 SSE 15 21 1014.5 - 7.6 - - - - - - -
02/04:30am 17.7 SSE 14 21 1014.3 - 7.0 - - - - - - -
02/04:00am 17.9 SSE 16 23 1014.0 - 6.4 - - - - - - -
02/03:30am 18.3 S 17 23 1014.0 - 6.0 - - - - - - -
02/03:00am 18.7 SSE 16 22 1013.8 - 6.0 - - - - - - -
02/02:30am 19.4 SE 12 19 1013.5 - 6.0 - - - - - - -
02/02:00am 19.5 SE 13 20 1013.4 - 6.0 - - - - - - -
02/01:30am 19.4 SSE 14 21 1013.3 - 6.0 - - - - - - -
02/01:00am 19.4 SE 14 20 1013.3 - 6.0 - - - - - - -
02/12:30am 19.4 SSE 13 22 1013.6 - 6.0 - - - - - - -
02/12:00am 19.3 SSE 12 17 1013.4 - 6.0 - - - - - - -
 
Date/Time
WST
Temp

°C
Wind Pressure Rain
since 9am
mm
Weather Cloud Vis
km
Sea
Height
m
Swell
Dir
 
Speed
knots
Gust
knots
hPa Trend Height
m
Period
s
Dir
01/11:30pm 19.2 SE 11 17 1013.8 - 6.0 - - - - - - -
01/11:00pm 18.8 SSE 11 17 1013.9 - 6.0 - - - - - - -
01/10:30pm 19.6 SSE 10 15 1013.8 - 5.8 - - - - - - -
01/10:00pm 19.2 SSE 10 14 1013.6 - 5.8 - - - - - - -
01/09:30pm 19.2 SSE 9 16 1013.4 - 5.8 - - - - - - -
01/09:00pm 18.6 SE 7 11 1013.7 - 5.8 Recent precip. - - - - - -
01/08:30pm 18.1 SE 9 13 1013.4 - 5.8 - - - - - - -
01/08:00pm 18.1 SE 11 15 1013.4 - 5.6 - - - - - - -
01/07:30pm 18.6 ESE 11 17 1012.6 - 4.2 - - - - - - -
01/07:00pm 18.3 ESE 10 17 1012.3 - 4.0 - - - - - - -
01/06:30pm 18.0 ESE 11 16 1012.2 - 4.0 - - - - - - -
01/06:00pm 18.2 SE 10 14 1012.9 - 2.2 Rain - - - - - -
01/05:30pm 18.6 SE 11 17 1012.1 - 0.8 - - - - - - -
01/05:00pm 18.9 SE 11 16 1012.0 - 0.8 - - - - - - -
01/04:30pm 19.3 SE 12 17 1011.5 - 0.0 - - - - - - -
01/04:00pm 20.6 ESE 11 16 1011.3 - 0.0 - - - - - - -
01/03:30pm 20.8 SE 11 17 1011.1 - 0.0 - - - - - - -
01/03:00pm 21.0 SE 13 20 1010.7 - 0.0 - - - - - - -
01/02:30pm 20.6 SE 14 21 1011.0 - 0.0 - - - - - - -
01/02:00pm 21.1 SE 16 21 1011.3 - 0.0 - - - - - - -
01/01:30pm 20.7 SE 15 19 1011.7 - 0.0 - - - - - - -
01/01:00pm 20.9 SE 15 21 1011.8 - 0.0 - - - - - - -
01/12:30pm 21.2 ESE 16 21 1012.1 - 0.0 - - - - - - -
01/12:00pm 23.0 ESE 15 21 1012.6 - 0.0 - - - - - - -
01/11:30am 22.5 SE 15 21 1013.4 - 0.0 - - - - - - -
01/11:00am 22.4 ESE 15 20 1014.0 - 0.0 - - - - - - -
01/10:30am 23.1 ESE 11 19 1014.5 - 0.0 - - - - - - -
01/10:00am 23.6 E 9 13 1015.0 - 0.0 - - - - - - -
01/09:30am 22.8 E 9 18 1015.6 - 0.0 - - - - - - -
01/09:00am 22.0 E 7 9 1016.0 - 0.0 - - - - - - -
01/08:30am 20.9 E 8 12 1016.1 - 0.0 - - - - - - -
01/08:00am 20.3 ENE 7 11 1016.2 - 0.0 - - - - - - -
01/07:30am 19.0 ENE 9 13 1016.3 - 0.0 - - - - - - -
01/07:00am 16.7 ENE 6 9 1016.5 - 0.0 - - - - - - -
01/06:30am 16.0 NE 6 7 1016.6 - 0.0 - - - - - - -
01/06:00am 15.7 NE 7 9 1016.4 - 0.0 - - - - - - -
01/05:30am 15.4 ENE 5 8 1016.2 - 0.0 - - - - - - -
01/05:00am 15.1 ENE 5 6 1016.1 - 0.0 - - - - - - -
01/04:30am 16.1 ENE 6 9 1015.9 - 0.0 - - - - - - -
01/04:00am 16.5 ENE 8 11 1015.9 - 0.0 - - - - - - -
01/03:30am 16.3 ENE 8 11 1015.9 - 0.0 - - - - - - -
01/03:00am 16.2 ENE 5 8 1016.3 - 0.0 - - - - - - -

Other Formats:

Comma delimited format used in spreadsheet applications
http://www.bom.gov.au/fwo/IDW60701/IDW60701.95635.axf

JavaScript Object Notation format (JSON) in row-major order
http://www.bom.gov.au/fwo/IDW60701/IDW60701.95635.json